Buoy 62726

sailwx.info

Track history (hours):
 
Tides and Currents Weather Stations Pressure Air Temp Water Temp Dewpoint Dewpoint Depression Visibility Wind Speed Wind Dir Waves Ship Positions

Drifting buoy 62726

Last reported at 2015-May-05 22:00 UTC. Time now 2015-May-06 04:24 UTC.
Position N 37°10' W 019°07'.

Water temperature 17.0 ° C

Date/timePositionNaut miles runAvg speedWind from/ knotsBaromVisibWave heightAir tempDewpointWater temp
2015-May-05 22:00N 37°10' W 019°07'0 0.3 17.0
2015-May-05 21:00N 37°10' W 019°08'0 0.0 17.1
2015-May-05 20:00N 37°10' W 019°08'0 0.1 17.2
2015-May-05 18:00N 37°10' W 019°08'2 0.8 17.3
2015-May-05 16:00N 37°09' W 019°09'0 0.0 17.4
2015-May-05 15:00N 37°09' W 019°09'4 1.8 17.4
2015-May-05 13:00N 37°05' W 019°09'0 0.0 17.2
2015-May-05 12:00N 37°05' W 019°09'3 0.6 17.2
2015-May-05 08:00N 37°03' W 019°08'0 0.2 16.7
2015-May-05 07:00N 37°03' W 019°08'2 0.6 16.7
2015-May-05 03:00N 37°02' W 019°06'1 0.2 16.7
2015-May-05 00:00N 37°02' W 019°05'0 0.0 16.8
2015-May-04 23:00N 37°02' W 019°05'3 0.5 16.8
2015-May-04 17:00N 36°59' W 019°06'0 0.0 16.9
2015-May-04 16:00N 36°59' W 019°06'2 0.7 16.9
2015-May-04 13:00N 36°57' W 019°05'4 3.9 16.8
2015-May-04 12:00N 36°56' W 018°60'0 0.0 16.7
2015-May-04 11:00N 36°56' W 018°60'1 0.2 16.7
2015-May-04 07:00N 36°56' W 018°59'1 0.0 16.7
2015-May-03 13:00N 36°57' W 018°59'0 0.0 17.1
2015-May-03 12:00N 36°57' W 018°59'2 0.3 17.1
2015-May-03 06:00N 36°56' W 018°57'0 0.1 17.0
2015-May-03 02:00N 36°56' W 018°57'1 0.2 17.0
2015-May-02 18:00N 36°55' W 018°56'1 0.1 17.0
2015-May-01 23:00N 36°55' W 018°58'0 0.0 17.2
2015-May-01 22:00N 36°55' W 018°58'1 0.8 17.2
2015-May-01 21:00N 36°54' W 018°58'0 0.0 17.2
2015-May-01 14:00N 36°54' W 018°58'2 0.4 17.2
2015-May-01 09:00N 36°56' W 018°57'0 0.1 17.1
2015-May-01 06:00N 36°56' W 018°57'0 0.0 17.0
2015-May-01 05:00N 36°56' W 018°57'0 0.0 17.0
2015-May-01 04:00N 36°56' W 018°57'0 0.0 17.1
2015-May-01 03:00N 36°56' W 018°57'3 0.3 17.1
2015-Apr-30 17:00N 36°58' W 018°54'0 0.0 17.1
2015-Apr-30 16:00N 36°58' W 018°54'0 0.0 17.1
2015-Apr-30 13:00N 36°58' W 018°54'0 0.4 17.0
2015-Apr-30 12:00N 36°58' W 018°54'0 0.0 16.9
2015-Apr-30 11:00N 36°58' W 018°54'0 0.1 16.9
2015-Apr-30 07:00N 36°57' W 018°54'0 0.1 16.8
2015-Apr-30 06:00N 36°57' W 018°54'1 0.6 16.9
2015-Apr-30 05:00N 36°57' W 018°53'0 0.0 17.0
2015-Apr-30 04:00N 36°57' W 018°53'1 0.2 17.0
2015-Apr-29 22:00N 36°57' W 018°52'2 0.3 17.1
2015-Apr-29 15:00N 36°57' W 018°49'0 0.0 17.3
2015-Apr-29 14:00N 36°57' W 018°49'1 0.2 17.2
2015-Apr-29 08:00N 36°57' W 018°48'0 0.4 16.8
2015-Apr-29 07:00N 36°57' W 018°48'3 0.5 16.8
2015-Apr-29 01:00N 36°57' W 018°44'1 0.1 16.8
2015-Apr-28 18:00N 36°57' W 018°43'1 0.2 17.0
2015-Apr-28 14:00N 36°57' W 018°43'3 0.4 16.9
2015-Apr-28 05:00N 36°56' W 018°39'0 0.0 16.8
2015-Apr-28 04:00N 36°56' W 018°39'2 0.7 16.9
2015-Apr-28 01:00N 36°56' W 018°36'6 0.3 17.0
2015-Apr-27 07:00N 36°56' W 018°28'1 1.2 16.4
2015-Apr-27 06:00N 36°57' W 018°27'0 0.0 16.4
2015-Apr-27 05:00N 36°57' W 018°27'0 0.0 16.4
2015-Apr-27 04:00N 36°57' W 018°27'4 0.3 16.4
2015-Apr-26 16:00N 36°56' W 018°22'5 0.6 16.5
2015-Apr-26 07:00N 36°59' W 018°16'   16.3
Track history (hours):
 
Tides and Currents Weather Stations Pressure Air Temp Water Temp Dewpoint Dewpoint Depression Visibility Wind Speed Wind Dir Waves Ship Positions

Drifting buoy 62726

Last reported at 2015-May-05 22:00 UTC. Time now 2015-May-06 04:24 UTC.
Position N 37°10' W 019°07'.

Water temperature 17.0 ° C

Date/timePositionNaut miles runAvg speedWind from/ knotsBaromVisibWave heightAir tempDewpointWater temp
2015-May-05 22:00N 37°10' W 019°07'0 0.3 17.0
2015-May-05 21:00N 37°10' W 019°08'0 0.0 17.1
2015-May-05 20:00N 37°10' W 019°08'0 0.1 17.2
2015-May-05 18:00N 37°10' W 019°08'2 0.8 17.3
2015-May-05 16:00N 37°09' W 019°09'0 0.0 17.4
2015-May-05 15:00N 37°09' W 019°09'4 1.8 17.4
2015-May-05 13:00N 37°05' W 019°09'0 0.0 17.2
2015-May-05 12:00N 37°05' W 019°09'3 0.6 17.2
2015-May-05 08:00N 37°03' W 019°08'0 0.2 16.7
2015-May-05 07:00N 37°03' W 019°08'2 0.6 16.7
2015-May-05 03:00N 37°02' W 019°06'1 0.2 16.7
2015-May-05 00:00N 37°02' W 019°05'0 0.0 16.8
2015-May-04 23:00N 37°02' W 019°05'3 0.5 16.8
2015-May-04 17:00N 36°59' W 019°06'0 0.0 16.9
2015-May-04 16:00N 36°59' W 019°06'2 0.7 16.9
2015-May-04 13:00N 36°57' W 019°05'4 3.9 16.8
2015-May-04 12:00N 36°56' W 018°60'0 0.0 16.7
2015-May-04 11:00N 36°56' W 018°60'1 0.2 16.7
2015-May-04 07:00N 36°56' W 018°59'1 0.0 16.7
2015-May-03 13:00N 36°57' W 018°59'0 0.0 17.1
2015-May-03 12:00N 36°57' W 018°59'2 0.3 17.1
2015-May-03 06:00N 36°56' W 018°57'0 0.1 17.0
2015-May-03 02:00N 36°56' W 018°57'1 0.2 17.0
2015-May-02 18:00N 36°55' W 018°56'1 0.1 17.0
2015-May-01 23:00N 36°55' W 018°58'0 0.0 17.2
2015-May-01 22:00N 36°55' W 018°58'1 0.8 17.2
2015-May-01 21:00N 36°54' W 018°58'0 0.0 17.2
2015-May-01 14:00N 36°54' W 018°58'2 0.4 17.2
2015-May-01 09:00N 36°56' W 018°57'0 0.1 17.1
2015-May-01 06:00N 36°56' W 018°57'0 0.0 17.0
2015-May-01 05:00N 36°56' W 018°57'0 0.0 17.0
2015-May-01 04:00N 36°56' W 018°57'0 0.0 17.1
2015-May-01 03:00N 36°56' W 018°57'3 0.3 17.1
2015-Apr-30 17:00N 36°58' W 018°54'0 0.0 17.1
2015-Apr-30 16:00N 36°58' W 018°54'0 0.0 17.1
2015-Apr-30 13:00N 36°58' W 018°54'0 0.4 17.0
2015-Apr-30 12:00N 36°58' W 018°54'0 0.0 16.9
2015-Apr-30 11:00N 36°58' W 018°54'0 0.1 16.9
2015-Apr-30 07:00N 36°57' W 018°54'0 0.1 16.8
2015-Apr-30 06:00N 36°57' W 018°54'1 0.6 16.9
2015-Apr-30 05:00N 36°57' W 018°53'0 0.0 17.0
2015-Apr-30 04:00N 36°57' W 018°53'1 0.2 17.0
2015-Apr-29 22:00N 36°57' W 018°52'2 0.3 17.1
2015-Apr-29 15:00N 36°57' W 018°49'0 0.0 17.3
2015-Apr-29 14:00N 36°57' W 018°49'1 0.2 17.2
2015-Apr-29 08:00N 36°57' W 018°48'0 0.4 16.8
2015-Apr-29 07:00N 36°57' W 018°48'3 0.5 16.8
2015-Apr-29 01:00N 36°57' W 018°44'1 0.1 16.8
2015-Apr-28 18:00N 36°57' W 018°43'1 0.2 17.0
2015-Apr-28 14:00N 36°57' W 018°43'3 0.4 16.9
2015-Apr-28 05:00N 36°56' W 018°39'0 0.0 16.8
2015-Apr-28 04:00N 36°56' W 018°39'2 0.7 16.9
2015-Apr-28 01:00N 36°56' W 018°36'6 0.3 17.0
2015-Apr-27 07:00N 36°56' W 018°28'1 1.2 16.4
2015-Apr-27 06:00N 36°57' W 018°27'0 0.0 16.4
2015-Apr-27 05:00N 36°57' W 018°27'0 0.0 16.4
2015-Apr-27 04:00N 36°57' W 018°27'4 0.3 16.4
2015-Apr-26 16:00N 36°56' W 018°22'5 0.6 16.5
2015-Apr-26 07:00N 36°59' W 018°16'   16.3

Dump ship's entire track history